Time;durP1;ratioP1;P1;durP2;ratioP2;P2;SDS_P1;SDS_P2;PMS_P1;PMS_P2;Temp;Humidity;BMP_temperature;BMP_pressure;BME280_temperature;BME280_humidity;BME280_pressure;Samples;Min_cycle;Max_cycle;Signal;HPM_P1;HPM_P2
2023/05/01 00:01:55;;;;;;;;;;;;;;;21.86;56.85;96925.41;619314;228;63036;-60
2023/05/01 00:04:23;;;;;;;;;;;;;;;21.85;55.79;96942.55;619482;228;66720;-59
2023/05/01 00:06:50;;;;;;;;;;;;;;;21.85;56.06;96947.89;619136;229;68837;-59
2023/05/01 00:09:18;;;;;;;;;;;;;;;21.86;55.66;96935.31;619178;228;65075;-59
2023/05/01 00:11:45;;;;;;;;;;;;;;;21.84;55.37;96919.52;618726;228;68793;-59
2023/05/01 00:14:13;;;;;;;;;;;;;;;21.84;54.57;96924.88;619599;228;68762;-59
2023/05/01 00:16:41;;;;;;;;;;;;;;;21.84;56.17;96911.50;619184;229;63101;-59
2023/05/01 00:19:11;;;;;;;;;;;;;;;21.83;54.63;96904.56;619442;229;68793;-59
2023/05/01 00:21:38;;;;;;;;;;;;;;;21.82;53.47;96897.59;619982;228;68703;-60
2023/05/01 00:24:06;;;;;;;;;;;;;;;21.83;56.06;96896.53;611928;229;65008;-59
2023/05/01 00:26:33;;;;;;;;;;;;;;;21.82;56.64;96896.80;614540;228;68823;-60
2023/05/01 00:29:01;;;;;;;;;;;;;;;21.81;55.94;96885.31;619216;228;69590;-60
2023/05/01 00:31:29;;;;;;;;;;;;;;;21.81;55.84;96890.66;620310;228;62912;-60
2023/05/01 00:33:57;;;;;;;;;;;;;;;21.81;55.32;96890.66;619585;226;66108;-59
2023/05/01 00:36:24;;;;;;;;;;;;;;;21.81;56.01;96884.52;619213;228;68324;-60
2023/05/01 00:38:52;;;;;;;;;;;;;;;21.81;54.43;96879.95;615907;229;65194;-60
2023/05/01 00:41:20;;;;;;;;;;;;;;;21.80;52.99;96882.91;618585;229;68633;-60
2023/05/01 00:43:47;;;;;;;;;;;;;;;21.80;55.37;96889.08;618526;229;69124;-60
2023/05/01 00:46:15;;;;;;;;;;;;;;;21.80;55.42;96882.91;618416;229;65271;-60
2023/05/01 00:48:42;;;;;;;;;;;;;;;21.79;53.69;96898.16;618932;229;68800;-60
2023/05/01 00:51:10;;;;;;;;;;;;;;;21.79;54.48;96910.73;620088;228;68550;-60
2023/05/01 00:53:40;;;;;;;;;;;;;;;21.79;56.50;96906.18;620468;228;64842;-60
2023/05/01 00:56:08;;;;;;;;;;;;;;;21.79;56.63;96905.39;619880;228;68766;-60
2023/05/01 00:58:36;;;;;;;;;;;;;;;21.78;55.41;96909.95;619860;228;66523;-59
2023/05/01 01:01:08;;;;;;;;;;;;;;;21.78;56.90;96912.63;619725;229;64947;-60
2023/05/01 01:03:36;;;;;;;;;;;;;;;21.78;56.09;96912.63;619644;229;66089;-58
2023/05/01 01:06:11;;;;;;;;;;;;;;;21.77;54.32;96915.56;619437;228;68346;-58
2023/05/01 01:08:56;;;;;;;;;;;;;;;21.76;55.49;96914.77;619227;228;62917;-59
2023/05/01 01:11:25;;;;;;;;;;;;;;;21.76;55.75;96920.12;619837;229;68687;-59
2023/05/01 01:13:55;;;;;;;;;;;;;;;21.75;54.15;96923.88;619114;228;68425;-59
2023/05/01 01:16:40;;;;;;;;;;;;;;;21.75;55.84;96915.06;619403;227;64926;-59
2023/05/01 01:19:21;;;;;;;;;;;;;;;21.75;54.58;96918.53;619582;229;66369;-59
2023/05/01 01:21:50;;;;;;;;;;;;;;;21.75;55.81;96917.73;618755;228;66241;-59
2023/05/01 01:24:28;;;;;;;;;;;;;;;21.74;54.86;96916.91;619215;229;63664;-59
2023/05/01 01:27:07;;;;;;;;;;;;;;;21.74;55.72;96927.61;619250;229;66435;-59
2023/05/01 01:29:48;;;;;;;;;;;;;;;21.74;56.58;96922.27;619333;228;68651;-60
2023/05/01 01:32:20;;;;;;;;;;;;;;;21.73;55.98;96926.02;619258;228;65639;-59
2023/05/01 01:34:50;;;;;;;;;;;;;;;21.73;56.19;96923.35;618728;229;66571;-58
2023/05/01 01:37:19;;;;;;;;;;;;;;;21.72;55.57;96922.55;619331;227;67521;-59
2023/05/01 01:39:48;;;;;;;;;;;;;;;21.71;56.08;96928.17;619170;228;62910;-59
2023/05/01 01:42:17;;;;;;;;;;;;;;;21.71;56.04;96928.96;621296;228;67240;-59
2023/05/01 01:44:58;;;;;;;;;;;;;;;21.71;55.79;96934.31;619076;228;68350;-59
2023/05/01 01:47:31;;;;;;;;;;;;;;;21.71;56.41;96923.61;618555;229;63794;-59
2023/05/01 01:49:56;;;;;;;;;;;;;;;21.70;55.42;96931.94;618214;229;68653;-59
2023/05/01 01:52:26;;;;;;;;;;;;;;;21.70;54.53;96926.58;618854;229;66427;-59
2023/05/01 01:54:57;;;;;;;;;;;;;;;21.70;56.50;96923.91;616317;229;65021;-59
2023/05/01 01:57:26;;;;;;;;;;;;;;;21.69;54.48;96923.12;619501;228;68591;-59
2023/05/01 01:59:54;;;;;;;;;;;;;;;21.70;56.74;96932.72;620678;228;66991;-59
2023/05/01 02:02:23;;;;;;;;;;;;;;;21.70;56.40;96922.03;619677;229;65092;-59
2023/05/01 02:04:51;;;;;;;;;;;;;;;21.68;56.21;96918.83;619871;228;68678;-59
2023/05/01 02:07:20;;;;;;;;;;;;;;;21.69;54.13;96925.00;619555;229;68744;-59
2023/05/01 02:09:49;;;;;;;;;;;;;;;21.68;55.77;96923.38;618196;229;65043;-59
2023/05/01 02:12:18;;;;;;;;;;;;;;;21.69;55.74;96922.33;619020;229;68944;-59
2023/05/01 02:14:49;;;;;;;;;;;;;;;21.68;55.65;96920.70;619613;227;66740;-59
2023/05/01 02:17:19;;;;;;;;;;;;;;;21.68;55.96;96928.73;620111;228;65895;-59
2023/05/01 02:19:47;;;;;;;;;;;;;;;21.68;57.14;96928.73;620215;228;68531;-59
2023/05/01 02:22:16;;;;;;;;;;;;;;;21.67;56.28;96921.79;619571;229;69542;-59
2023/05/01 02:24:45;;;;;;;;;;;;;;;21.67;55.73;96927.14;619695;229;65072;-59
2023/05/01 02:27:17;;;;;;;;;;;;;;;21.66;54.96;96926.34;619996;228;66538;-59
2023/05/01 02:29:44;;;;;;;;;;;;;;;21.66;55.94;96933.55;619128;228;67490;-59
2023/05/01 02:32:12;;;;;;;;;;;;;;;21.66;54.83;96931.70;617397;229;63091;-59
2023/05/01 02:34:40;;;;;;;;;;;;;;;21.66;56.35;96941.57;619159;229;68944;-59
2023/05/01 02:37:10;;;;;;;;;;;;;;;21.66;55.85;96941.57;618540;229;66463;-59
2023/05/01 02:39:38;;;;;;;;;;;;;;;21.66;55.98;96941.57;619472;229;62570;-59
2023/05/01 02:42:08;;;;;;;;;;;;;;;21.66;56.24;96944.24;620853;227;66440;-59
2023/05/01 02:44:37;;;;;;;;;;;;;;;21.65;56.28;96939.98;619721;228;66636;-58
2023/05/01 02:47:07;;;;;;;;;;;;;;;21.66;57.55;96946.92;618184;228;64987;-59
2023/05/01 02:49:36;;;;;;;;;;;;;;;21.65;56.76;96950.68;618682;229;68955;-59
2023/05/01 02:52:04;;;;;;;;;;;;;;;21.64;55.39;96954.44;620802;228;69375;-58
2023/05/01 02:54:32;;;;;;;;;;;;;;;21.64;56.23;96955.23;620060;227;65090;-59
2023/05/01 02:57:01;;;;;;;;;;;;;;;21.64;56.24;96963.26;619997;228;68764;-59
2023/05/01 02:59:28;;;;;;;;;;;;;;;21.63;55.00;96963.52;618568;229;68810;-59
2023/05/01 03:01:57;;;;;;;;;;;;;;;21.63;57.10;96968.88;618525;227;65049;-59
2023/05/01 03:04:24;;;;;;;;;;;;;;;21.63;55.16;96966.20;619139;229;69466;-59
2023/05/01 03:06:52;;;;;;;;;;;;;;;21.63;56.68;96974.22;618750;229;68460;-58
2023/05/01 03:09:21;;;;;;;;;;;;;;;21.62;56.93;96973.42;618854;228;65944;-59
2023/05/01 03:11:48;;;;;;;;;;;;;;;21.62;55.75;96977.98;620225;228;66709;-59
2023/05/01 03:14:16;;;;;;;;;;;;;;;21.62;57.86;96978.77;619677;229;69035;-58
2023/05/01 03:16:43;;;;;;;;;;;;;;;21.62;56.05;96986.00;621672;228;63077;-59
2023/05/01 03:19:11;;;;;;;;;;;;;;;21.61;56.62;96987.09;621287;228;68751;-59
2023/05/01 03:21:39;;;;;;;;;;;;;;;21.61;56.33;96981.74;620273;228;66488;-59
2023/05/01 03:24:06;;;;;;;;;;;;;;;21.59;56.57;96982.00;620185;228;62659;-59
2023/05/01 03:26:34;;;;;;;;;;;;;;;21.60;55.48;96982.80;619586;227;68763;-59
2023/05/01 03:29:01;;;;;;;;;;;;;;;21.60;55.46;96993.49;620918;228;68641;-59
2023/05/01 03:31:29;;;;;;;;;;;;;;;21.59;56.32;96992.70;619634;229;62520;-59
2023/05/01 03:33:57;;;;;;;;;;;;;;;21.59;55.86;96997.25;618999;229;67097;-58
2023/05/01 03:36:26;;;;;;;;;;;;;;;21.58;56.93;96996.46;606821;231;68799;-59
2023/05/01 03:38:54;;;;;;;;;;;;;;;21.58;56.70;96998.31;613173;230;64884;-59
2023/05/01 03:41:39;;;;;;;;;;;;;;;21.58;57.34;96990.28;620032;228;42635;-59
2023/05/01 03:44:09;;;;;;;;;;;;;;;21.57;56.35;96997.52;619485;228;47126;-59
2023/05/01 03:46:40;;;;;;;;;;;;;;;21.57;55.44;97008.21;618533;229;42520;-58
2023/05/01 03:49:10;;;;;;;;;;;;;;;21.57;56.40;96996.72;618588;229;46063;-59
2023/05/01 03:51:41;;;;;;;;;;;;;;;21.56;57.11;97009.30;618462;229;47356;-59
2023/05/01 03:54:09;;;;;;;;;;;;;;;21.56;55.47;97005.83;618546;229;65026;-59
2023/05/01 03:56:38;;;;;;;;;;;;;;;21.56;56.87;97013.84;618174;229;45788;-59
2023/05/01 03:59:06;;;;;;;;;;;;;;;21.56;57.21;97016.52;619234;229;68710;-59
2023/05/01 04:01:33;;;;;;;;;;;;;;;21.56;56.24;97024.55;618891;229;62662;-59
2023/05/01 04:04:01;;;;;;;;;;;;;;;21.55;57.47;97021.05;619023;229;68967;-59
2023/05/01 04:06:29;;;;;;;;;;;;;;;21.55;56.73;97022.93;618561;229;68595;-58
2023/05/01 04:08:56;;;;;;;;;;;;;;;21.55;57.21;97021.05;618518;227;62695;-59
2023/05/01 04:11:24;;;;;;;;;;;;;;;21.54;56.71;97024.02;618625;229;68435;-59
2023/05/01 04:13:52;;;;;;;;;;;;;;;21.53;56.08;97017.87;618535;229;66675;-59
2023/05/01 04:16:19;;;;;;;;;;;;;;;21.53;55.03;97027.77;618544;229;65097;-59
2023/05/01 04:18:47;;;;;;;;;;;;;;;21.53;54.41;97022.42;618570;227;68762;-59
2023/05/01 04:21:16;;;;;;;;;;;;;;;21.52;56.59;97032.30;618601;229;69326;-59
2023/05/01 04:23:44;;;;;;;;;;;;;;;21.54;57.62;97037.38;619070;229;65893;-59
2023/05/01 04:26:11;;;;;;;;;;;;;;;21.52;57.20;97024.27;618551;229;68806;-59
2023/05/01 04:28:39;;;;;;;;;;;;;;;21.52;56.83;97037.64;619235;228;66666;-59
2023/05/01 04:31:07;;;;;;;;;;;;;;;21.50;55.90;97037.94;620402;228;66268;-59
2023/05/01 04:33:36;;;;;;;;;;;;;;;21.52;56.09;97039.52;619280;228;68839;-59
2023/05/01 04:36:04;;;;;;;;;;;;;;;21.51;56.46;97038.73;619316;228;67453;-59
2023/05/01 04:38:32;;;;;;;;;;;;;;;21.52;56.29;97044.87;618595;229;63092;-58
2023/05/01 04:41:00;;;;;;;;;;;;;;;21.50;56.95;97034.47;618599;229;68697;-59
2023/05/01 04:43:28;;;;;;;;;;;;;;;21.52;57.58;97044.87;618427;229;68812;-60
2023/05/01 04:45:55;;;;;;;;;;;;;;;21.50;58.03;97045.16;621057;228;64977;-58
2023/05/01 04:48:23;;;;;;;;;;;;;;;21.50;57.06;97043.28;621564;227;65997;-59
2023/05/01 04:50:50;;;;;;;;;;;;;;;21.48;55.41;97045.42;619346;227;68898;-59
2023/05/01 04:53:18;;;;;;;;;;;;;;;21.48;55.81;97048.09;619318;228;65850;-59
2023/05/01 04:55:45;;;;;;;;;;;;;;;21.48;57.79;97042.75;620607;228;69004;-59
2023/05/01 04:58:15;;;;;;;;;;;;;;;21.48;55.95;97041.95;619541;228;67388;-59
2023/05/01 05:00:43;;;;;;;;;;;;;;;21.48;57.85;97045.42;619846;228;65826;-59
2023/05/01 05:03:12;;;;;;;;;;;;;;;21.48;55.67;97049.97;619106;229;45900;-59
2023/05/01 05:05:40;;;;;;;;;;;;;;;21.47;56.96;97057.20;618620;229;69299;-59
2023/05/01 05:08:08;;;;;;;;;;;;;;;21.47;55.87;97056.38;619104;229;62667;-59
2023/05/01 05:10:37;;;;;;;;;;;;;;;21.46;56.73;97055.58;618828;229;47238;-59
2023/05/01 05:13:12;;;;;;;;;;;;;;;21.46;55.13;97060.92;619347;228;49597;-59
2023/05/01 05:15:40;;;;;;;;;;;;;;;21.46;54.75;97060.92;618689;229;65150;-59
2023/05/01 05:18:09;;;;;;;;;;;;;;;21.45;55.15;97059.34;618570;229;65844;-59
2023/05/01 05:20:39;;;;;;;;;;;;;;;21.46;56.25;97065.48;618619;229;68541;-59
2023/05/01 05:23:07;;;;;;;;;;;;;;;21.45;56.24;97059.34;618783;229;64947;-59
2023/05/01 05:25:34;;;;;;;;;;;;;;;21.44;56.82;97063.09;618958;229;68647;-59
2023/05/01 05:28:02;;;;;;;;;;;;;;;21.44;56.69;97073.79;618627;229;68354;-59
2023/05/01 05:30:29;;;;;;;;;;;;;;;21.44;57.02;97071.11;618686;229;65030;-60
2023/05/01 05:32:57;;;;;;;;;;;;;;;21.44;56.01;97076.47;619164;227;68880;-59
2023/05/01 05:35:26;;;;;;;;;;;;;;;21.44;57.29;97084.48;619787;228;66222;-59
2023/05/01 05:37:54;;;;;;;;;;;;;;;21.44;57.37;97086.33;619446;227;62498;-59
2023/05/01 05:40:22;;;;;;;;;;;;;;;21.44;57.63;97089.01;618892;229;68818;-60
2023/05/01 05:42:55;;;;;;;;;;;;;;;21.43;55.35;97096.23;620035;227;51375;-59
2023/05/01 05:45:24;;;;;;;;;;;;;;;21.44;58.28;97089.83;621757;227;64999;-59
2023/05/01 05:47:53;;;;;;;;;;;;;;;21.42;56.27;97099.20;613430;228;70466;-59
2023/05/01 05:50:21;;;;;;;;;;;;;;;21.43;55.64;97098.11;623389;227;68694;-59
2023/05/01 05:52:48;;;;;;;;;;;;;;;21.42;55.16;97099.98;622684;225;62772;-59
2023/05/01 05:55:16;;;;;;;;;;;;;;;21.42;56.56;97099.98;620389;228;66406;-60
2023/05/01 05:57:45;;;;;;;;;;;;;;;21.42;57.96;97099.20;619634;228;46609;-59
2023/05/01 06:00:14;;;;;;;;;;;;;;;21.41;56.52;97094.90;619367;228;65788;-59
2023/05/01 06:02:43;;;;;;;;;;;;;;;21.41;56.05;97093.02;619325;229;48175;-59
2023/05/01 06:05:11;;;;;;;;;;;;;;;21.42;57.48;97096.52;619442;229;68481;-59
2023/05/01 06:07:39;;;;;;;;;;;;;;;21.40;56.70;97096.78;619228;228;62933;-59
2023/05/01 06:10:07;;;;;;;;;;;;;;;21.39;54.66;97108.55;618045;229;66891;-59
2023/05/01 06:12:37;;;;;;;;;;;;;;;21.39;57.79;97108.55;619573;228;48668;-59
2023/05/01 06:15:06;;;;;;;;;;;;;;;21.39;57.02;97108.55;619607;229;65716;-59
2023/05/01 06:17:36;;;;;;;;;;;;;;;21.39;57.05;97113.91;619122;229;68798;-59
2023/05/01 06:20:05;;;;;;;;;;;;;;;21.39;56.98;97107.73;618167;229;68521;-59
2023/05/01 06:22:32;;;;;;;;;;;;;;;21.39;56.40;97111.23;619257;229;63085;-59
2023/05/01 06:25:03;;;;;;;;;;;;;;;21.41;57.12;97110.94;618853;228;47444;-59
2023/05/01 06:27:30;;;;;;;;;;;;;;;21.39;57.12;97111.23;618885;229;69074;-59
2023/05/01 06:29:58;;;;;;;;;;;;;;;21.39;56.87;97111.23;619107;229;64908;-58
2023/05/01 06:32:27;;;;;;;;;;;;;;;21.40;56.54;97112.81;617480;228;68907;-59
2023/05/01 06:34:55;;;;;;;;;;;;;;;21.40;56.30;97118.16;619673;227;68684;-59
2023/05/01 06:37:22;;;;;;;;;;;;;;;21.40;56.20;97117.38;619533;229;65154;-59
2023/05/01 06:39:50;;;;;;;;;;;;;;;21.41;56.79;97116.28;619570;229;68931;-59
2023/05/01 06:42:20;;;;;;;;;;;;;;;21.41;56.63;97121.64;619078;229;68494;-60
2023/05/01 06:44:47;;;;;;;;;;;;;;;21.39;55.35;97119.25;619514;229;66108;-59
2023/05/01 06:47:15;;;;;;;;;;;;;;;21.41;58.22;97127.77;619230;228;68818;-59
2023/05/01 06:49:43;;;;;;;;;;;;;;;21.42;57.77;97125.93;619275;229;68294;-60
2023/05/01 06:52:10;;;;;;;;;;;;;;;21.42;58.26;97131.27;619146;228;64877;-59
2023/05/01 06:54:40;;;;;;;;;;;;;;;21.40;57.89;97136.88;618063;228;68670;-59
2023/05/01 06:57:07;;;;;;;;;;;;;;;21.40;57.94;97142.23;619138;228;67478;-60
2023/05/01 06:59:35;;;;;;;;;;;;;;;21.41;58.06;97137.67;620529;228;62934;-60
2023/05/01 07:02:02;;;;;;;;;;;;;;;21.41;57.63;97143.81;618079;228;68804;-59
2023/05/01 07:04:31;;;;;;;;;;;;;;;21.40;57.22;97142.23;621314;228;66701;-60
2023/05/01 07:06:59;;;;;;;;;;;;;;;21.41;57.99;97143.81;618078;227;65043;-60
2023/05/01 07:09:27;;;;;;;;;;;;;;;21.40;58.17;97147.58;619452;228;68882;-60
2023/05/01 07:11:55;;;;;;;;;;;;;;;21.40;57.50;97147.58;619198;228;68724;-60
2023/05/01 07:14:23;;;;;;;;;;;;;;;21.41;57.06;97143.02;617523;229;65014;-60
2023/05/01 07:16:50;;;;;;;;;;;;;;;21.41;57.53;97159.06;619138;227;68539;-60
2023/05/01 07:19:18;;;;;;;;;;;;;;;21.40;57.33;97152.92;619130;229;68710;-60
2023/05/01 07:21:45;;;;;;;;;;;;;;;21.40;56.73;97152.13;617578;229;65111;-60
2023/05/01 07:24:13;;;;;;;;;;;;;;;21.41;58.90;97159.06;619086;228;68998;-60
2023/05/01 07:26:40;;;;;;;;;;;;;;;21.39;57.70;97156.67;619661;228;68725;-60
2023/05/01 07:29:08;;;;;;;;;;;;;;;21.39;57.79;97145.98;619579;228;65058;-60
2023/05/01 07:31:36;;;;;;;;;;;;;;;21.40;57.19;97158.27;619862;228;66522;-60
2023/05/01 07:34:04;;;;;;;;;;;;;;;21.40;58.07;97155.59;619316;228;66436;-60
2023/05/01 07:36:32;;;;;;;;;;;;;;;21.39;57.36;97159.35;621162;228;64771;-60
2023/05/01 07:39:00;;;;;;;;;;;;;;;21.40;57.89;97154.80;613362;229;68752;-60
2023/05/01 07:41:27;;;;;;;;;;;;;;;21.39;57.43;97154.00;616734;229;66604;-60
2023/05/01 07:43:55;;;;;;;;;;;;;;;21.40;58.91;97146.78;619323;228;62966;-60
2023/05/01 07:46:22;;;;;;;;;;;;;;;21.39;57.56;97151.33;619318;226;66748;-60
2023/05/01 07:48:50;;;;;;;;;;;;;;;21.39;58.71;97154.00;618525;229;66723;-59
2023/05/01 07:51:18;;;;;;;;;;;;;;;21.39;57.94;97151.33;618359;229;65046;-60
2023/05/01 07:53:46;;;;;;;;;;;;;;;21.38;58.69;97144.36;618406;228;68706;-60
2023/05/01 07:56:13;;;;;;;;;;;;;;;21.38;58.24;97143.56;619905;228;66641;-59
2023/05/01 07:58:41;;;;;;;;;;;;;;;21.38;57.99;97152.38;620285;228;64976;-60
2023/05/01 08:01:09;;;;;;;;;;;;;;;21.39;57.99;97145.16;619344;229;68665;-60
2023/05/01 08:03:36;;;;;;;;;;;;;;;21.38;57.91;97144.36;619009;229;68531;-60
2023/05/01 08:06:04;;;;;;;;;;;;;;;21.38;57.71;97149.70;618807;229;65039;-60
2023/05/01 08:08:32;;;;;;;;;;;;;;;21.38;58.84;97133.67;619011;229;66577;-60
2023/05/01 08:10:59;;;;;;;;;;;;;;;21.38;57.82;97144.36;616910;229;67031;-60
2023/05/01 08:13:27;;;;;;;;;;;;;;;21.37;58.36;97140.09;619348;229;63115;-60
2023/05/01 08:15:57;;;;;;;;;;;;;;;21.37;58.49;97142.77;619125;228;66661;-60
2023/05/01 08:18:23;;;;;;;;;;;;;;;21.38;58.06;97141.69;620569;228;66592;-60
2023/05/01 08:20:51;;;;;;;;;;;;;;;21.37;58.07;97150.80;620593;228;65153;-60
2023/05/01 08:23:18;;;;;;;;;;;;;;;21.37;57.93;97141.94;619861;228;68737;-60
2023/05/01 08:25:49;;;;;;;;;;;;;;;21.37;58.71;97142.77;619781;228;66530;-60
2023/05/01 08:28:15;;;;;;;;;;;;;;;21.36;57.57;97154.52;619085;228;64984;-60
2023/05/01 08:30:47;;;;;;;;;;;;;;;21.36;58.19;97146.50;620888;226;68560;-60
2023/05/01 08:33:15;;;;;;;;;;;;;;;21.37;57.95;97153.47;619955;228;66668;-59
2023/05/01 08:35:42;;;;;;;;;;;;;;;21.35;57.80;97144.88;619228;228;62928;-59
2023/05/01 08:38:11;;;;;;;;;;;;;;;21.37;59.29;97152.64;619093;229;68916;-59
2023/05/01 08:40:38;;;;;;;;;;;;;;;21.36;59.23;97149.17;618597;228;68569;-59
2023/05/01 08:43:06;;;;;;;;;;;;;;;21.35;57.88;97138.73;618875;229;65156;-59
2023/05/01 08:45:37;;;;;;;;;;;;;;;21.36;60.00;97141.15;619017;228;68809;-60
2023/05/01 08:48:13;;;;;;;;;;;;;;;21.36;58.45;97149.17;619133;228;66629;-58
2023/05/01 08:50:38;;;;;;;;;;;;;;;21.35;57.62;97139.53;622521;227;65154;-59
2023/05/01 08:53:06;;;;;;;;;;;;;;;21.35;56.60;97150.22;620229;228;68856;-59
2023/05/01 08:55:34;;;;;;;;;;;;;;;21.35;58.82;97144.88;618498;229;68750;-59
2023/05/01 08:58:03;;;;;;;;;;;;;;;21.35;58.59;97138.73;618518;229;64894;-59
2023/05/01 09:00:32;;;;;;;;;;;;;;;21.35;58.57;97152.89;620199;228;68816;-59
2023/05/01 09:03:01;;;;;;;;;;;;;;;21.35;58.16;97150.22;615846;229;68825;-59
2023/05/01 09:05:30;;;;;;;;;;;;;;;21.35;58.98;97146.75;618515;229;62955;-59
2023/05/01 09:07:58;;;;;;;;;;;;;;;21.35;57.01;97149.42;618390;229;66625;-59
2023/05/01 09:10:26;;;;;;;;;;;;;;;21.35;57.94;97149.42;612667;230;66686;-59
2023/05/01 09:12:58;;;;;;;;;;;;;;;21.34;58.55;97143.28;614340;229;65078;-59
2023/05/01 09:15:26;;;;;;;;;;;;;;;21.34;58.73;97132.59;619106;227;68896;-59
2023/05/01 09:17:55;;;;;;;;;;;;;;;21.34;58.38;97131.80;618160;229;67978;-59
2023/05/01 09:20:22;;;;;;;;;;;;;;;21.33;59.15;97135.52;619138;229;62894;-59
2023/05/01 09:22:53;;;;;;;;;;;;;;;21.34;57.65;97142.48;619110;228;65284;-59
2023/05/01 09:25:20;;;;;;;;;;;;;;;21.34;57.73;97143.28;619706;227;68986;-59
2023/05/01 09:27:48;;;;;;;;;;;;;;;21.34;55.68;97148.63;619765;229;63039;-59
2023/05/01 09:30:32;;;;;;;;;;;;;;;21.33;58.20;97130.97;618885;229;66258;-60
2023/05/01 09:33:09;;;;;;;;;;;;;;;21.34;58.85;97129.13;618799;229;68530;-59
2023/05/01 09:35:58;;;;;;;;;;;;;;;21.33;59.00;97130.17;619432;229;62988;-59
2023/05/01 09:38:27;;;;;;;;;;;;;;;21.33;58.96;97130.97;619363;228;67414;-59
2023/05/01 09:40:56;;;;;;;;;;;;;;;21.32;58.43;97126.70;619337;229;66740;-59
2023/05/01 09:43:25;;;;;;;;;;;;;;;21.33;60.02;97132.84;619734;228;65321;-59
2023/05/01 09:46:00;;;;;;;;;;;;;;;21.32;59.34;97131.25;620110;228;68267;-59
2023/05/01 09:48:28;;;;;;;;;;;;;;;21.32;59.24;97126.70;619919;228;68870;-59
2023/05/01 09:50:55;;;;;;;;;;;;;;;21.31;58.88;97129.63;618827;229;65011;-59
2023/05/01 09:53:38;;;;;;;;;;;;;;;21.30;58.16;97126.17;619221;228;66782;-59
2023/05/01 09:56:06;;;;;;;;;;;;;;;21.32;58.56;97129.38;618893;227;68694;-59
2023/05/01 09:58:35;;;;;;;;;;;;;;;21.32;58.50;97117.89;619572;228;65039;-59
2023/05/01 10:01:02;;;;;;;;;;;;;;;21.31;59.25;97122.44;617227;227;68780;-59
2023/05/01 10:03:31;;;;;;;;;;;;;;;21.31;58.68;97119.77;619970;227;68828;-59
2023/05/01 10:06:01;;;;;;;;;;;;;;;21.31;58.50;97125.11;619200;228;65125;-59
2023/05/01 10:08:29;;;;;;;;;;;;;;;21.31;58.44;97116.27;619165;228;73203;-59
2023/05/01 10:10:59;;;;;;;;;;;;;;;21.31;58.32;97109.08;617386;228;66612;-59
2023/05/01 10:13:26;;;;;;;;;;;;;;;21.31;58.13;97109.08;619061;228;62995;-59
2023/05/01 10:15:54;;;;;;;;;;;;;;;21.31;57.92;97109.08;620243;228;68744;-59
2023/05/01 10:18:22;;;;;;;;;;;;;;;21.31;57.31;97116.27;620967;226;68695;-59
2023/05/01 10:20:50;;;;;;;;;;;;;;;21.31;58.50;97101.06;619243;228;65111;-59
2023/05/01 10:23:18;;;;;;;;;;;;;;;21.30;57.03;97107.45;619140;229;68798;-59
2023/05/01 10:25:47;;;;;;;;;;;;;;;21.32;59.20;97112.55;619145;229;66720;-59
2023/05/01 10:28:14;;;;;;;;;;;;;;;21.31;59.37;97100.23;620280;228;64937;-59
2023/05/01 10:30:45;;;;;;;;;;;;;;;21.30;59.51;97107.45;619661;227;68754;-59
2023/05/01 10:33:14;;;;;;;;;;;;;;;21.29;58.34;97108.53;619115;228;68526;-59
2023/05/01 10:35:42;;;;;;;;;;;;;;;21.31;59.10;97106.41;620555;226;65462;-59
2023/05/01 10:38:12;;;;;;;;;;;;;;;21.29;58.37;97114.68;621220;228;68748;-59
2023/05/01 10:40:41;;;;;;;;;;;;;;;21.31;59.53;97110.92;619662;228;67024;-59
2023/05/01 10:43:15;;;;;;;;;;;;;;;21.30;59.75;97112.80;619486;229;65034;-59
2023/05/01 10:45:43;;;;;;;;;;;;;;;21.30;59.37;97118.15;619225;228;68794;-59
2023/05/01 10:48:11;;;;;;;;;;;;;;;21.30;57.90;97115.48;609459;229;66787;-59
2023/05/01 10:50:59;;;;;;;;;;;;;;;21.28;58.32;97123.78;619361;229;46263;-59
2023/05/01 10:53:28;;;;;;;;;;;;;;;21.29;57.55;97127.25;619418;229;68786;-59
2023/05/01 10:55:55;;;;;;;;;;;;;;;21.28;58.26;97122.98;620012;228;68688;-59
2023/05/01 10:58:39;;;;;;;;;;;;;;;21.28;59.08;97121.11;618471;229;65032;-59
2023/05/01 11:01:21;;;;;;;;;;;;;;;21.28;58.01;97122.98;612162;228;68263;-59
2023/05/01 11:03:48;;;;;;;;;;;;;;;21.28;59.65;97121.11;609893;228;68647;-59
2023/05/01 11:06:16;;;;;;;;;;;;;;;21.28;57.90;97117.64;614804;229;62912;-59
2023/05/01 11:08:44;;;;;;;;;;;;;;;21.27;57.99;97114.14;613506;229;68827;-59
2023/05/01 11:11:22;;;;;;;;;;;;;;;21.28;58.60;97121.11;620976;227;68775;-59
2023/05/01 11:14:07;;;;;;;;;;;;;;;21.28;57.26;97120.31;620493;227;65074;-59
2023/05/01 11:16:39;;;;;;;;;;;;;;;21.28;58.38;97121.11;621136;228;68810;-59
2023/05/01 11:19:12;;;;;;;;;;;;;;;21.26;57.57;97122.45;619861;228;50135;-59
2023/05/01 11:21:40;;;;;;;;;;;;;;;21.28;57.39;97139.02;618248;228;62916;-59
2023/05/01 11:24:08;;;;;;;;;;;;;;;21.28;57.83;97145.16;619243;228;68801;-59
2023/05/01 11:26:38;;;;;;;;;;;;;;;21.28;58.52;97136.35;620912;228;68778;-59
2023/05/01 11:29:06;;;;;;;;;;;;;;;21.27;58.47;97146.22;619552;228;65227;-59
2023/05/01 11:31:34;;;;;;;;;;;;;;;21.26;57.66;97146.50;619724;229;68801;-59
2023/05/01 11:34:02;;;;;;;;;;;;;;;21.28;58.20;97147.05;619387;229;66090;-59
2023/05/01 11:36:31;;;;;;;;;;;;;;;21.28;57.22;97147.05;619123;229;65039;-59
2023/05/01 11:38:59;;;;;;;;;;;;;;;21.27;58.05;97151.56;618903;228;68827;-59
2023/05/01 11:41:27;;;;;;;;;;;;;;;21.29;58.53;97148.63;620026;228;69027;-59
2023/05/01 11:43:56;;;;;;;;;;;;;;;21.28;57.93;97149.72;618838;229;62943;-59
2023/05/01 11:46:27;;;;;;;;;;;;;;;21.28;57.91;97149.72;620501;228;68736;-59
2023/05/01 11:48:57;;;;;;;;;;;;;;;21.27;57.16;97148.89;619508;229;68491;-60
2023/05/01 11:51:25;;;;;;;;;;;;;;;21.27;57.39;97146.22;620209;228;65018;-60
2023/05/01 11:54:03;;;;;;;;;;;;;;;21.28;57.96;97141.70;619768;228;68901;-60
2023/05/01 11:56:32;;;;;;;;;;;;;;;21.28;57.78;97139.02;619107;229;68961;-59
2023/05/01 11:59:01;;;;;;;;;;;;;;;21.27;57.54;97142.75;620536;228;62917;-59
2023/05/01 12:01:35;;;;;;;;;;;;;;;21.28;58.78;97144.38;618412;229;68802;-60
2023/05/01 12:04:03;;;;;;;;;;;;;;;21.27;58.92;97138.20;619356;227;68500;-57
2023/05/01 12:06:47;;;;;;;;;;;;;;;21.26;58.27;97136.61;620855;228;62912;-58
2023/05/01 12:09:08;;;;;;;;;;;;;;;21.27;58.01;97142.75;618945;228;66574;-59
2023/05/01 12:11:35;;;;;;;;;;;;;;;21.26;57.36;97141.16;618717;229;66469;-59
2023/05/01 12:14:03;;;;;;;;;;;;;;;21.26;58.10;97146.50;618971;229;62983;-58
2023/05/01 12:16:31;;;;;;;;;;;;;;;21.27;58.27;97151.56;619122;229;66310;-59
2023/05/01 12:18:58;;;;;;;;;;;;;;;21.26;59.31;97149.17;621248;228;68646;-58
2023/05/01 12:21:26;;;;;;;;;;;;;;;21.25;58.17;97151.05;619594;229;65117;-58
2023/05/01 12:23:57;;;;;;;;;;;;;;;21.25;57.35;97151.05;619083;229;66855;-59
2023/05/01 12:26:27;;;;;;;;;;;;;;;21.25;57.99;97147.55;619623;229;69407;-59
2023/05/01 12:28:59;;;;;;;;;;;;;;;21.26;58.03;97143.83;619591;229;65015;-59
2023/05/01 12:31:27;;;;;;;;;;;;;;;21.26;57.68;97141.16;619478;229;68800;-59
2023/05/01 12:34:01;;;;;;;;;;;;;;;21.26;59.08;97141.95;619320;229;68554;-59
2023/05/01 12:36:30;;;;;;;;;;;;;;;21.25;58.54;97140.36;617453;229;65020;-59
2023/05/01 12:39:02;;;;;;;;;;;;;;;21.25;58.99;97137.69;619532;228;66694;-59
2023/05/01 12:41:34;;;;;;;;;;;;;;;21.25;60.11;97134.19;619666;228;68860;-59
2023/05/01 12:44:02;;;;;;;;;;;;;;;21.25;58.28;97135.02;618550;229;62743;-59
2023/05/01 12:46:30;;;;;;;;;;;;;;;21.25;59.47;97143.03;612717;230;68831;-59
2023/05/01 12:48:57;;;;;;;;;;;;;;;21.24;57.76;97133.39;619269;229;68726;-59
2023/05/01 12:51:26;;;;;;;;;;;;;;;21.25;57.61;97136.86;619461;229;65149;-59
2023/05/01 12:53:57;;;;;;;;;;;;;;;21.24;56.99;97144.08;619600;229;66599;-59
2023/05/01 12:56:24;;;;;;;;;;;;;;;21.25;58.15;97134.19;618974;229;68667;-60
2023/05/01 12:58:54;;;;;;;;;;;;;;;21.24;57.71;97136.06;619627;229;65051;-60